Time;durP1;ratioP1;P1;durP2;ratioP2;P2;SDS_P1;SDS_P2;PMS_P1;PMS_P2;Temp;Humidity;BMP_temperature;BMP_pressure;BME280_temperature;BME280_humidity;BME280_pressure;Samples;Min_cycle;Max_cycle;Signal;HPM_P1;HPM_P2
2022/01/18 00:03:20;;;;;;;28.20;14.13;;;;;;;2.20;94.22;103605.25;10484269;28;20044;-78
2022/01/18 00:08:20;;;;;;;34.63;15.00;;;;;;;2.35;94.54;103611.41;10499393;28;20079;-78
2022/01/18 00:18:24;;;;;;;26.63;12.52;;;;;;;2.52;94.80;103620.34;10481911;28;20383;-78
2022/01/18 00:23:25;;;;;;;47.85;19.08;;;;;;;2.58;94.85;103626.28;10481498;28;20024;-78
2022/01/18 00:28:26;;;;;;;48.75;20.08;;;;;;;2.70;95.31;103625.94;10499177;28;20020;-78
2022/01/18 00:38:48;;;;;;;41.42;18.00;;;;;;;2.88;94.83;103635.06;10498313;28;20049;-78
2022/01/18 00:43:48;;;;;;;51.58;19.48;;;;;;;2.89;94.94;103637.84;10532780;28;20041;-78
2022/01/18 00:48:51;;;;;;;49.58;23.08;;;;;;;2.93;95.34;103646.91;10496953;28;20048;-78
2022/01/18 00:53:52;;;;;;;52.25;24.20;;;;;;;3.00;95.14;103643.41;10497144;28;20025;-78
2022/01/18 00:58:53;;;;;;;59.90;25.38;;;;;;;3.03;95.06;103639.56;10496381;28;20056;-78
2022/01/18 01:03:56;;;;;;;50.35;20.15;;;;;;;3.11;95.18;103635.31;10481354;28;20102;-78
2022/01/18 01:08:57;;;;;;;50.22;20.35;;;;;;;3.13;95.18;103639.00;10480415;28;20047;-78
2022/01/18 01:13:59;;;;;;;50.47;22.50;;;;;;;3.25;95.37;103643.81;10463120;28;20025;-78
2022/01/18 01:35:28;;;;;;;48.05;21.58;;;;;;;3.41;95.16;103644.94;10495368;28;20021;-78
2022/01/18 01:45:51;;;;;;;45.20;20.63;;;;;;;3.50;95.36;103651.25;10473897;28;20109;-78
2022/01/18 01:51:02;;;;;;;74.32;23.80;;;;;;;3.48;95.06;103655.31;10495728;28;20074;-78
2022/01/18 01:56:03;;;;;;;49.80;20.80;;;;;;;3.47;94.93;103656.06;10496316;28;20475;-77
2022/01/18 02:01:07;;;;;;;51.30;21.75;;;;;;;3.46;95.54;103653.28;10511896;28;20028;-78
2022/01/18 02:06:08;;;;;;;50.40;21.48;;;;;;;3.47;95.41;103653.47;10479087;28;20036;-77
2022/01/18 02:11:09;;;;;;;61.72;26.17;;;;;;;3.49;95.28;103654.56;10495048;28;20029;-78
2022/01/18 02:16:16;;;;;;;80.55;31.40;;;;;;;3.49;95.13;103649.41;10494254;28;20134;-78
2022/01/18 02:26:36;;;;;;;82.97;35.53;;;;;;;3.51;94.84;103634.97;10480847;28;20028;-78
2022/01/18 02:31:36;;;;;;;74.75;31.27;;;;;;;3.56;94.91;103638.13;10494958;28;20028;-78
2022/01/18 02:36:37;;;;;;;54.53;29.63;;;;;;;3.55;94.75;103630.16;10495091;28;20032;-78
2022/01/18 02:41:38;;;;;;;57.05;29.35;;;;;;;3.53;94.82;103630.91;10493031;28;20098;-78
2022/01/18 02:46:39;;;;;;;86.07;33.33;;;;;;;3.56;94.92;103638.13;10477375;28;20041;-78
2022/01/18 02:51:40;;;;;;;89.63;35.97;;;;;;;3.56;95.38;103643.31;10493587;28;20119;-78
2022/01/18 02:56:45;;;;;;;57.25;28.25;;;;;;;3.59;95.32;103627.19;10477986;28;20134;-78
2022/01/18 03:07:06;;;;;;;73.93;34.53;;;;;;;3.59;95.23;103630.72;10478072;28;20465;-78
2022/01/18 03:12:09;;;;;;;60.10;30.92;;;;;;;3.58;95.49;103631.47;10469683;28;20029;-78
2022/01/18 03:17:10;;;;;;;70.90;32.67;;;;;;;3.56;95.12;103630.34;10494990;28;20021;-78
2022/01/18 03:22:10;;;;;;;78.38;33.45;;;;;;;3.56;94.95;103638.13;10495410;28;20383;-78
2022/01/18 03:32:31;;;;;;;89.50;38.78;;;;;;;3.55;95.03;103646.63;10500864;28;20399;-78
2022/01/18 03:37:31;;;;;;;67.88;32.60;;;;;;;3.56;94.81;103647.53;10500557;28;20075;-78
2022/01/18 03:42:40;;;;;;;67.80;34.85;;;;;;;3.58;95.21;103640.88;10466608;28;20094;-78
2022/01/18 03:47:41;;;;;;;91.45;34.60;;;;;;;3.58;95.68;103646.06;10452836;28;20042;-78
2022/01/18 03:52:42;;;;;;;71.97;31.35;;;;;;;3.59;95.21;103650.50;10483772;28;20072;-78
2022/01/18 03:57:42;;;;;;;69.60;37.30;;;;;;;3.59;95.12;103653.09;10500620;28;20032;-78
2022/01/18 04:02:43;;;;;;;75.90;42.08;;;;;;;3.58;95.13;103651.25;10499897;28;20036;-78
2022/01/18 04:07:44;;;;;;;87.10;41.72;;;;;;;3.58;95.00;103661.59;10501231;28;20457;-78
2022/01/18 04:12:44;;;;;;;118.60;46.97;;;;;;;3.61;95.23;103669.75;10482079;28;20119;-78
2022/01/18 04:28:30;;;;;;;92.60;48.08;;;;;;;3.65;94.94;103678.09;10500426;28;20280;-78
2022/01/18 04:33:31;;;;;;;90.95;43.17;;;;;;;3.62;94.85;103677.72;10497124;28;20040;-78
2022/01/18 04:38:32;;;;;;;101.95;43.80;;;;;;;3.61;94.73;103667.16;10498727;28;20040;-78
2022/01/18 04:44:08;;;;;;;88.32;43.20;;;;;;;3.59;95.50;103666.03;10500108;28;20582;-78
2022/01/18 04:49:10;;;;;;;92.75;47.30;;;;;;;3.63;95.36;103671.81;10498865;28;20078;-78
2022/01/18 04:54:12;;;;;;;87.90;46.42;;;;;;;3.62;95.40;103667.38;10481503;28;20040;-78
2022/01/18 04:59:13;;;;;;;102.37;47.80;;;;;;;3.64;95.05;103667.53;10498470;28;20023;-78
2022/01/18 05:04:13;;;;;;;104.43;50.00;;;;;;;3.62;94.98;103677.72;10455677;28;20056;-78
2022/01/18 05:09:14;;;;;;;87.65;47.80;;;;;;;3.65;95.30;103682.34;10456157;28;20056;-78
2022/01/18 05:19:26;;;;;;;96.38;44.33;;;;;;;3.64;95.49;103677.88;10480913;28;20407;-78
2022/01/18 05:24:29;;;;;;;96.15;48.65;;;;;;;3.63;94.78;103676.03;10497634;28;20044;-78
2022/01/18 05:29:30;;;;;;;75.57;41.05;;;;;;;3.67;94.72;103671.44;10463731;28;20040;-78
2022/01/18 05:34:30;;;;;;;63.33;35.60;;;;;;;3.64;94.61;103671.06;10497000;28;20543;-78
2022/01/18 05:39:31;;;;;;;64.38;38.25;;;;;;;3.57;94.37;103672.72;10496178;28;20091;-78
2022/01/18 05:44:31;;;;;;;73.70;43.58;;;;;;;3.45;94.93;103666.97;10478805;28;20032;-78
2022/01/18 05:49:32;;;;;;;92.32;44.72;;;;;;;3.43;94.76;103671.03;10474125;28;20027;-76
2022/01/18 05:54:32;;;;;;;113.63;75.32;;;;;;;3.42;94.74;103677.88;10475994;28;20456;-78
2022/01/18 05:59:38;;;;;;;79.93;45.08;;;;;;;3.41;94.89;103681.19;10460978;28;20027;-76
2022/01/18 06:09:58;;;;;;;80.22;46.35;;;;;;;3.41;94.94;103696.72;10493935;28;20036;-78
2022/01/18 06:14:58;;;;;;;104.65;47.45;;;;;;;3.49;95.49;103688.25;10477459;28;20111;-78
2022/01/18 06:19:59;;;;;;;81.80;44.20;;;;;;;3.49;95.33;103684.75;10491445;28;20036;-77
2022/01/18 06:25:00;;;;;;;89.43;47.47;;;;;;;3.44;95.57;103691.03;10492436;28;20464;-78
2022/01/18 06:30:00;;;;;;;110.32;50.15;;;;;;;3.43;95.40;103697.84;10451632;28;20445;-77
2022/01/18 06:35:00;;;;;;;105.90;52.58;;;;;;;3.40;95.25;103700.06;10479053;28;20079;-78
2022/01/18 06:40:03;;;;;;;107.75;48.35;;;;;;;3.40;95.36;103694.88;10474013;28;20453;-78
2022/01/18 06:45:04;;;;;;;94.40;50.15;;;;;;;3.42;94.95;103693.41;10476690;28;20037;-77
2022/01/18 06:50:06;;;;;;;90.63;48.50;;;;;;;3.44;95.65;103693.63;10475789;28;20041;-78
2022/01/18 06:55:07;;;;;;;107.53;52.30;;;;;;;3.42;94.84;103685.63;10494585;28;20119;-77
2022/01/18 07:00:11;;;;;;;98.40;51.17;;;;;;;3.40;95.39;103691.38;10482720;28;20078;-76
2022/01/18 07:05:14;;;;;;;102.65;53.00;;;;;;;3.35;95.27;103689.16;10494337;28;20129;-76
2022/01/18 07:10:15;;;;;;;123.78;58.63;;;;;;;3.30;95.71;103691.91;10483701;28;20063;-76
2022/01/18 07:15:16;;;;;;;102.77;51.37;;;;;;;3.25;95.33;103703.38;10496367;28;20075;-76
2022/01/18 07:20:16;;;;;;;101.82;53.70;;;;;;;3.18;95.23;103700.03;10482904;28;20144;-76
2022/01/18 07:25:18;;;;;;;101.63;52.97;;;;;;;3.16;95.53;103698.91;10481440;28;20033;-76
2022/01/18 07:30:19;;;;;;;113.03;54.58;;;;;;;3.13;95.52;103701.13;10468143;28;20472;-77
2022/01/18 07:35:19;;;;;;;115.43;52.97;;;;;;;3.22;95.35;103711.69;10491106;28;20066;-79
2022/01/18 07:40:20;;;;;;;109.05;52.40;;;;;;;3.30;95.60;103704.84;10483585;28;20033;-79
2022/01/18 07:45:21;;;;;;;95.03;52.97;;;;;;;3.37;95.40;103702.28;10498733;28;20048;-80
2022/01/18 07:50:25;;;;;;;80.90;42.40;;;;;;;3.42;95.46;103714.13;10490740;28;20464;-77
2022/01/18 07:55:26;;;;;;;134.07;55.28;;;;;;;3.49;95.81;103721.91;10477837;28;20477;-78
2022/01/18 08:00:27;;;;;;;100.22;50.90;;;;;;;3.63;95.72;103733.97;10495816;28;20039;-78
2022/01/18 08:05:27;;;;;;;96.30;52.63;;;;;;;3.67;95.81;103731.00;10478508;28;20085;-79
2022/01/18 08:10:30;;;;;;;99.30;50.97;;;;;;;3.71;95.70;103727.09;10475592;28;20112;-77
2022/01/18 08:15:39;;;;;;;113.18;51.63;;;;;;;3.75;96.13;103724.16;10480467;28;20459;-78
2022/01/18 08:20:40;;;;;;;99.97;55.28;;;;;;;3.88;95.76;103728.22;10488442;28;20064;-78
2022/01/18 08:25:40;;;;;;;100.43;51.97;;;;;;;3.98;95.95;103723.41;10476327;28;20115;-79
2022/01/18 08:30:41;;;;;;;102.18;49.63;;;;;;;4.08;96.29;103720.28;10508910;28;20037;-79
2022/01/18 08:35:44;;;;;;;100.65;51.60;;;;;;;4.17;95.40;103725.63;10497581;28;20043;-78
2022/01/18 08:40:45;;;;;;;98.55;48.05;;;;;;;4.31;95.95;103722.09;10503677;28;20028;-78
2022/01/18 08:45:45;;;;;;;96.13;46.30;;;;;;;4.58;95.35;103716.63;10515140;28;20405;-79
2022/01/18 08:50:46;;;;;;;101.07;46.45;;;;;;;4.62;95.18;103721.44;10521557;28;20036;-78
2022/01/18 08:55:46;;;;;;;92.95;43.05;;;;;;;4.83;95.26;103725.66;10507188;28;20435;-78
2022/01/18 09:00:47;;;;;;;86.25;44.38;;;;;;;4.87;95.79;103716.53;10505944;28;20035;-78
2022/01/18 09:05:48;;;;;;;76.88;40.20;;;;;;;4.87;95.06;103719.13;10508315;28;20028;-78
2022/01/18 09:10:52;;;;;;;73.53;41.80;;;;;;;5.19;94.85;103721.03;10527615;28;20406;-78
2022/01/18 09:15:53;;;;;;;125.63;41.10;;;;;;;5.24;93.69;103722.50;10502672;28;20100;-79
2022/01/18 09:20:53;;;;;;;86.20;43.97;;;;;;;5.50;92.89;103732.34;10474304;28;20071;-79
2022/01/18 09:25:54;;;;;;;79.20;34.15;;;;;;;5.82;92.83;103736.00;10521549;28;20064;-78
2022/01/18 09:30:54;;;;;;;59.83;30.23;;;;;;;5.86;90.49;103733.00;10517053;28;20024;-79
2022/01/18 09:35:55;;;;;;;58.95;28.10;;;;;;;6.11;89.49;103740.06;10502157;28;20489;-79
2022/01/18 09:40:56;;;;;;;49.72;24.55;;;;;;;6.32;88.11;103739.88;10481736;28;20062;-78
2022/01/18 09:45:57;;;;;;;57.83;27.52;;;;;;;6.49;87.21;103743.41;10519220;28;20107;-79
2022/01/18 09:50:59;;;;;;;43.20;23.52;;;;;;;6.74;86.04;103743.50;10518071;28;20842;-78
2022/01/18 09:55:59;;;;;;;55.33;23.57;;;;;;;6.57;85.21;103746.84;10487762;28;20031;-78
2022/01/18 10:01:00;;;;;;;39.83;22.38;;;;;;;6.70;86.73;103747.44;10494420;28;20120;-80
2022/01/18 10:06:02;;;;;;;52.70;25.55;;;;;;;6.88;85.89;103747.59;10476750;28;20036;-79
2022/01/18 10:11:17;;;;;;;51.10;22.73;;;;;;;7.14;84.49;103762.53;10472419;28;20036;-79
2022/01/18 10:16:21;;;;;;;50.45;20.90;;;;;;;7.00;84.99;103759.34;10497201;28;20024;-77
2022/01/18 10:21:30;;;;;;;41.38;19.90;;;;;;;6.78;84.42;103755.16;10496237;28;20028;-77
2022/01/18 10:26:30;;;;;;;54.17;21.98;;;;;;;7.02;85.36;103755.22;10489586;28;20373;-76
2022/01/18 10:37:01;;;;;;;35.25;20.08;;;;;;;7.86;79.97;103734.50;10513803;28;20614;-77
2022/01/18 10:42:41;;;;;;;42.63;20.38;;;;;;;7.55;81.59;103742.59;10498946;28;20140;-77
2022/01/18 10:47:59;;;;;;;49.15;21.35;;;;;;;7.81;80.64;103736.59;10507499;28;20048;-76
2022/01/18 10:53:10;;;;;;;41.17;17.90;;;;;;;7.86;80.48;103722.34;10503126;28;20472;-77
2022/01/18 10:58:13;;;;;;;50.38;23.85;;;;;;;8.22;79.52;103724.31;10495857;28;20036;-77
2022/01/18 11:03:13;;;;;;;50.97;24.58;;;;;;;8.25;79.36;103714.97;10482944;28;20091;-77
2022/01/18 11:08:18;;;;;;;41.30;19.60;;;;;;;8.69;78.03;103716.00;10471345;28;20115;-79
2022/01/18 11:13:23;;;;;;;37.42;18.38;;;;;;;8.42;77.59;103709.78;10490784;28;20094;-79
2022/01/18 11:18:35;;;;;;;42.22;21.17;;;;;;;8.30;79.58;103700.72;10489252;28;20064;-77
2022/01/18 11:23:36;;;;;;;;;;;;;;;8.58;78.06;103696.66;10492949;28;20036;-78
2022/01/18 11:28:37;;;;;;;47.17;18.30;;;;;;;8.60;76.84;103695.13;10509293;28;19924;-79
2022/01/18 11:33:38;;;;;;;40.92;17.42;;;;;;;8.70;76.67;103685.63;10517476;28;20070;-76
2022/01/18 11:38:56;;;;;;;38.97;16.20;;;;;;;9.03;74.96;103685.44;10498499;28;20566;-78
2022/01/18 11:43:57;;;;;;;38.60;18.73;;;;;;;9.17;73.38;103681.59;10498732;28;20058;-77
2022/01/18 11:49:05;;;;;;;34.15;17.38;;;;;;;8.75;75.58;103682.69;10487085;28;20044;-77
2022/01/18 11:59:39;;;;;;;36.65;16.58;;;;;;;9.06;75.21;103682.22;10500790;28;20043;-78
2022/01/18 12:04:49;;;;;;;40.10;16.38;;;;;;;9.20;74.26;103678.34;10486041;28;20033;-78
2022/01/18 12:09:50;;;;;;;34.47;15.88;;;;;;;9.47;73.52;103680.13;10490944;28;20033;-78
2022/01/18 12:14:51;;;;;;;33.90;16.48;;;;;;;9.47;72.14;103679.19;10514638;28;20115;-77
2022/01/18 12:19:51;;;;;;;31.27;15.82;;;;;;;9.46;71.73;103672.13;10505203;28;20123;-78
2022/01/18 12:25:27;;;;;;;32.03;16.15;;;;;;;9.29;73.79;103673.09;10506847;28;20052;-78
2022/01/18 12:30:52;;;;;;;32.42;14.10;;;;;;;9.31;72.74;103655.88;10514699;28;20024;-76
2022/01/18 12:36:28;;;;;;;24.63;13.13;;;;;;;9.52;70.25;103651.81;10471215;28;20032;-78
2022/01/18 12:41:42;;;;;;;35.75;13.52;;;;;;;9.72;70.75;103637.09;10503636;28;20040;-77
2022/01/18 12:46:52;;;;;;;31.63;13.18;;;;;;;9.68;70.10;103638.53;10521073;28;20039;-76
2022/01/18 12:51:58;;;;;;;29.00;13.88;;;;;;;9.15;70.49;103641.31;10494481;28;20025;-77
2022/01/18 12:57:13;;;;;;;32.90;13.45;;;;;;;8.59;70.80;103630.63;10481929;28;20024;-76
2022/01/18 13:02:21;;;;;;;30.95;14.43;;;;;;;8.17;74.90;103621.19;10477232;28;20059;-76
2022/01/18 13:07:23;;;;;;;25.48;13.88;;;;;;;7.67;76.79;103617.84;10502963;28;20063;-75
2022/01/18 13:12:39;;;;;;;40.40;15.32;;;;;;;7.31;77.71;103623.66;10517894;28;20115;-77
2022/01/18 13:23:03;;;;;;;40.95;14.63;;;;;;;6.71;80.09;103611.31;10492783;28;20037;-78
2022/01/18 13:28:04;;;;;;;37.97;15.25;;;;;;;6.50;81.17;103609.00;10489075;28;20391;-77
2022/01/18 13:33:06;;;;;;;27.58;16.60;;;;;;;6.30;81.56;103597.38;10495325;28;20039;-77
2022/01/18 13:38:08;;;;;;;39.58;14.40;;;;;;;6.07;82.85;103600.97;10491854;28;20048;-76
2022/01/18 13:43:12;;;;;;;35.20;15.82;;;;;;;5.91;83.80;103594.81;10517507;28;20056;-76
2022/01/18 13:48:13;;;;;;;35.50;14.20;;;;;;;5.75;84.55;103582.72;10488142;28;20391;-77
2022/01/18 13:53:30;;;;;;;38.57;14.30;;;;;;;5.56;84.85;103585.88;10468992;28;20040;-77
2022/01/18 13:58:34;;;;;;;25.73;13.77;;;;;;;5.49;85.34;103583.34;10489191;28;20070;-77
2022/01/18 14:03:36;;;;;;;35.63;13.50;;;;;;;7.09;86.46;103573.59;10495081;28;20507;-77
2022/01/18 14:08:53;;;;;;;27.15;12.27;;;;;;;9.15;75.83;103556.78;10501355;28;20024;-77
2022/01/18 14:13:54;;;;;;;23.27;10.43;;;;;;;10.55;68.74;103534.03;10501756;28;20061;-77
2022/01/18 14:19:02;;;;;;;27.42;11.05;;;;;;;12.31;61.80;103539.56;10495465;28;20028;-78
2022/01/18 14:24:05;;;;;;;26.30;13.50;;;;;;;12.78;58.95;103525.84;10499790;28;20115;-77
2022/01/18 14:29:06;;;;;;;16.77;6.97;;;;;;;11.93;60.60;103531.97;10510231;28;20036;-78
2022/01/18 14:34:06;;;;;;;19.10;7.95;;;;;;;10.28;64.48;103522.84;10513741;28;20036;-78
2022/01/18 14:39:08;;;;;;;20.05;7.25;;;;;;;9.33;67.37;103537.63;10500864;28;20071;-77
2022/01/18 14:44:13;;;;;;;23.83;7.50;;;;;;;8.85;68.98;103529.50;10516078;28;20040;-78
2022/01/18 14:49:14;;;;;;;17.75;7.45;;;;;;;7.39;74.19;103526.38;10511593;28;20043;-77
2022/01/18 14:54:14;;;;;;;23.63;7.65;;;;;;;6.33;78.14;103519.66;10531981;28;20112;-76
2022/01/18 14:59:16;;;;;;;18.65;7.75;;;;;;;5.70;79.52;103526.72;10537110;28;20414;-76
2022/01/18 15:04:16;;;;;;;20.92;8.35;;;;;;;5.28;82.07;103524.72;10536016;28;20069;-76
2022/01/18 15:09:17;;;;;;;15.88;5.30;;;;;;;4.90;82.95;103509.25;10537807;28;20038;-76
2022/01/18 15:14:17;;;;;;;25.80;7.13;;;;;;;4.59;83.38;103520.44;10519490;28;20103;-76
2022/01/18 15:19:18;;;;;;;17.15;4.85;;;;;;;4.39;83.69;103522.56;10524162;28;20064;-77
2022/01/18 15:24:18;;;;;;;24.13;8.63;;;;;;;4.21;84.39;103512.66;10498078;28;20124;-76
2022/01/18 15:29:19;;;;;;;19.95;6.55;;;;;;;3.94;85.24;103512.22;10500652;28;20075;-77
2022/01/18 15:34:19;;;;;;;21.25;5.22;;;;;;;3.79;86.32;103502.66;10517704;28;20468;-76
2022/01/18 15:39:20;;;;;;;11.57;5.07;;;;;;;3.62;86.54;103503.25;10515341;28;20040;-75
2022/01/18 15:44:21;;;;;;;31.23;9.38;;;;;;;3.49;87.75;103501.78;10540074;28;20223;-76
2022/01/18 15:49:23;;;;;;;16.52;6.32;;;;;;;3.44;87.64;103504.59;10517746;28;20119;-75
2022/01/18 15:54:24;;;;;;;;;;;;;;;3.44;88.56;103494.22;10501056;28;20480;-76
2022/01/18 15:59:26;;;;;;;19.13;7.78;;;;;;;3.50;88.67;103495.88;10532980;28;19918;-75
2022/01/18 16:04:26;;;;;;;16.70;8.02;;;;;;;3.52;88.63;103491.78;10500345;28;20112;-76
2022/01/18 16:09:27;;;;;;;15.18;6.22;;;;;;;3.47;88.85;103492.00;10500856;28;20115;-76
2022/01/18 16:14:27;;;;;;;20.45;7.38;;;;;;;3.50;89.24;103482.00;10482108;28;20035;-76
2022/01/18 16:19:28;;;;;;;21.63;8.45;;;;;;;3.55;88.37;103474.78;10532935;28;20031;-75
2022/01/18 16:24:28;;;;;;;26.75;8.93;;;;;;;3.55;88.54;103477.38;10508169;28;20067;-75
2022/01/18 16:29:29;;;;;;;19.25;8.00;;;;;;;3.55;89.16;103474.78;10486577;28;20114;-75
2022/01/18 16:34:30;;;;;;;18.15;8.05;;;;;;;3.62;88.96;103466.97;10499335;28;20037;-75
2022/01/18 16:39:35;;;;;;;25.42;11.00;;;;;;;3.67;89.32;103468.44;10498935;28;20172;-78
2022/01/18 16:44:36;;;;;;;25.92;9.00;;;;;;;3.72;88.97;103469.91;10515510;28;20153;-76
2022/01/18 16:49:36;;;;;;;31.27;11.50;;;;;;;4.02;87.92;103469.06;10500795;28;20062;-77
2022/01/18 16:54:38;;;;;;;23.27;11.63;;;;;;;4.10;86.86;103468.28;10521026;28;20024;-76
2022/01/18 16:59:39;;;;;;;27.95;9.15;;;;;;;4.16;86.41;103464.53;10513848;28;20033;-77
2022/01/18 17:04:39;;;;;;;19.67;9.18;;;;;;;4.10;86.34;103464.78;10496093;28;20032;-77
2022/01/18 17:09:40;;;;;;;20.35;8.70;;;;;;;4.27;85.67;103469.28;10510930;28;20024;-77
2022/01/18 17:14:41;;;;;;;15.45;8.88;;;;;;;4.19;85.80;103475.25;10495226;28;20043;-76
2022/01/18 17:19:56;;;;;;;17.63;7.05;;;;;;;4.46;84.78;103477.53;10514330;28;20036;-78
2022/01/18 17:24:57;;;;;;;25.30;11.38;;;;;;;4.46;84.08;103471.41;10480217;28;20040;-78
2022/01/18 17:30:14;;;;;;;20.65;8.88;;;;;;;4.36;85.18;103480.72;10519084;28;20050;-77
2022/01/18 17:35:19;;;;;;;22.88;8.52;;;;;;;4.36;85.68;103485.91;10516594;28;20031;-77
2022/01/18 17:40:20;;;;;;;18.55;7.10;;;;;;;4.34;85.94;103484.81;10505388;28;20132;-77
2022/01/18 17:45:23;;;;;;;20.38;7.65;;;;;;;4.34;86.17;103482.22;10507804;28;20040;-77
2022/01/18 17:50:26;;;;;;;17.65;7.63;;;;;;;4.31;85.67;103480.97;10500267;28;20028;-77
2022/01/18 17:55:32;;;;;;;29.23;9.73;;;;;;;4.31;86.48;103461.13;10519145;28;20032;-77
2022/01/18 18:00:32;;;;;;;12.75;6.30;;;;;;;4.27;87.04;103461.50;10502636;28;20441;-79
2022/01/18 18:05:36;;;;;;;20.50;7.10;;;;;;;4.30;86.58;103442.81;10494577;28;20020;-78
2022/01/18 18:10:40;;;;;;;21.92;11.63;;;;;;;3.90;86.04;103444.31;10496572;28;20016;-77
2022/01/18 18:15:54;;;;;;;21.33;9.85;;;;;;;3.42;87.12;103436.16;10494504;28;20028;-77
2022/01/18 18:20:58;;;;;;;23.30;9.68;;;;;;;3.13;87.86;103441.41;10507322;28;20074;-76
2022/01/18 18:26:06;;;;;;;18.13;8.77;;;;;;;2.89;88.35;103435.13;10503080;28;20162;-76
2022/01/18 18:31:15;;;;;;;16.98;7.65;;;;;;;2.48;88.81;103434.56;10524154;28;20028;-75
2022/01/18 18:36:33;;;;;;;27.95;14.02;;;;;;;2.15;88.95;103429.69;10512809;28;20036;-76
2022/01/18 18:47:08;;;;;;;20.70;9.05;;;;;;;1.87;90.39;103397.88;10497116;28;20048;-75
2022/01/18 18:52:12;;;;;;;24.75;11.23;;;;;;;1.93;91.01;103406.38;10514320;28;20037;-76
2022/01/18 18:57:28;;;;;;;25.15;12.80;;;;;;;2.25;91.53;103424.00;10504898;28;20580;-77
2022/01/18 19:03:15;;;;;;;19.58;9.60;;;;;;;2.19;91.42;103416.41;10493974;28;20125;-76
2022/01/18 19:08:08;;;;;;;24.73;8.57;;;;;;;2.06;91.27;103403.66;10501287;28;20502;-78
2022/01/18 19:13:15;;;;;;;26.60;11.45;;;;;;;2.00;91.72;103393.50;10483815;28;20388;-76
2022/01/18 19:18:20;;;;;;;20.38;9.68;;;;;;;2.21;92.15;103381.34;10500660;28;20503;-78
2022/01/18 19:23:25;;;;;;;25.35;10.77;;;;;;;2.16;92.14;103377.28;10484301;28;20036;-77
2022/01/18 19:28:27;;;;;;;35.80;18.63;;;;;;;2.14;92.57;103377.13;10501199;28;20056;-78
2022/01/18 19:33:35;;;;;;;38.97;17.08;;;;;;;2.15;92.69;103371.22;10501379;28;20027;-77
2022/01/18 19:38:39;;;;;;;32.05;12.98;;;;;;;1.79;91.71;103353.03;10500509;28;20044;-77
2022/01/18 19:43:40;;;;;;;28.45;12.60;;;;;;;1.48;91.83;103368.97;10517812;28;20820;-77
2022/01/18 19:48:41;;;;;;;32.03;16.85;;;;;;;1.34;92.28;103360.41;10483266;28;20127;-77
2022/01/18 19:53:42;;;;;;;30.40;13.63;;;;;;;1.14;91.89;103363.09;10500308;28;20039;-78
2022/01/18 19:58:44;;;;;;;34.13;21.02;;;;;;;1.08;92.29;103364.91;10499488;28;20357;-76
2022/01/18 20:03:55;;;;;;;33.00;15.95;;;;;;;0.90;91.88;103373.81;10500863;28;20131;-77
2022/01/18 20:08:59;;;;;;;51.83;24.92;;;;;;;0.73;92.67;103370.00;10498759;28;20123;-78
2022/01/18 20:14:02;;;;;;;58.90;29.30;;;;;;;0.42;92.48;103390.19;10466285;28;20039;-78
2022/01/18 20:19:03;;;;;;;56.83;28.02;;;;;;;0.20;92.52;103396.78;10498886;28;20048;-77
2022/01/18 20:24:08;;;;;;;62.10;32.25;;;;;;;0.34;93.23;103403.75;10482487;28;20032;-78
2022/01/18 20:29:09;;;;;;;62.97;32.40;;;;;;;0.69;93.67;103399.63;10499609;28;20079;-78
2022/01/18 20:34:28;;;;;;;65.82;34.45;;;;;;;0.99;94.41;103386.22;10499058;28;20028;-78
2022/01/18 20:39:31;;;;;;;55.20;31.52;;;;;;;1.03;94.52;103374.63;10482439;28;20476;-78
2022/01/18 20:44:34;;;;;;;50.97;29.92;;;;;;;0.87;93.86;103367.53;10498288;28;20043;-78
2022/01/18 20:49:35;;;;;;;47.47;24.13;;;;;;;0.71;94.05;103346.63;10498063;28;20037;-78
2022/01/18 20:54:37;;;;;;;48.17;20.30;;;;;;;0.56;93.46;103345.56;10497092;28;20484;-76
2022/01/18 20:59:43;;;;;;;62.60;29.25;;;;;;;0.53;93.52;103339.13;10497770;28;20024;-78
2022/01/18 21:04:46;;;;;;;67.10;35.97;;;;;;;0.49;93.57;103327.47;10496255;28;20064;-78
2022/01/18 21:10:03;;;;;;;53.58;31.48;;;;;;;0.21;93.33;103308.47;10497874;28;20036;-78
2022/01/18 21:15:14;;;;;;;57.90;34.60;;;;;;;0.04;93.58;103279.63;10496509;28;20079;-78
2022/01/18 21:20:18;;;;;;;60.97;30.50;;;;;;;-0.16;93.45;103272.81;10494846;28;20107;-77
2022/01/18 21:25:29;;;;;;;62.40;34.92;;;;;;;-0.21;93.27;103276.44;10495461;28;20078;-78
2022/01/18 21:30:57;;;;;;;59.42;33.95;;;;;;;-0.46;93.30;103278.41;10479012;28;20404;-78
2022/01/18 21:36:01;;;;;;;57.72;33.28;;;;;;;-0.76;93.28;103259.16;10495997;28;20107;-78
2022/01/18 21:41:09;;;;;;;55.17;29.02;;;;;;;-0.93;93.33;103258.59;10495650;28;20132;-78
2022/01/18 21:46:14;;;;;;;70.93;33.03;;;;;;;-1.00;93.70;103268.78;10496061;28;20051;-78
2022/01/18 21:51:23;;;;;;;66.38;36.28;;;;;;;-0.99;93.77;103253.53;10495104;28;20091;-78
2022/01/18 21:56:27;;;;;;;42.20;24.60;;;;;;;-0.95;93.87;103248.06;10495510;28;20039;-78
2022/01/18 22:01:36;;;;;;;53.35;29.27;;;;;;;-0.92;93.46;103248.47;10494967;28;20064;-78
2022/01/18 22:06:40;;;;;;;61.70;37.70;;;;;;;-0.94;94.33;103239.63;10494859;28;20116;-78
2022/01/18 22:11:43;;;;;;;67.63;37.08;;;;;;;-1.11;94.23;103219.44;10496613;28;20044;-78
2022/01/18 22:16:49;;;;;;;72.70;39.25;;;;;;;-1.24;94.42;103219.44;10494949;28;20494;-78
2022/01/18 22:21:57;;;;;;;72.15;35.80;;;;;;;-1.27;93.25;103198.47;10493921;28;20045;-78
2022/01/18 22:27:06;;;;;;;69.05;37.55;;;;;;;-1.33;94.10;103193.47;10495338;28;20041;-79
2022/01/18 22:32:11;;;;;;;67.97;37.30;;;;;;;-1.40;93.38;103182.16;10496026;28;20122;-79
2022/01/18 22:37:19;;;;;;;78.45;41.45;;;;;;;-1.37;94.08;103183.50;10494605;28;20375;-79
2022/01/18 22:42:23;;;;;;;80.63;46.40;;;;;;;-1.35;94.11;103178.53;10493421;28;20045;-79
2022/01/18 22:47:31;;;;;;;93.30;45.20;;;;;;;-1.36;93.66;103174.13;10496090;28;20044;-79
2022/01/18 22:52:35;;;;;;;57.97;30.52;;;;;;;-1.50;94.08;103152.66;10478928;28;20086;-79
2022/01/18 22:57:44;;;;;;;65.65;31.52;;;;;;;-1.54;94.36;103146.94;10494894;28;20054;-78
2022/01/18 23:02:53;;;;;;;67.45;39.97;;;;;;;-1.43;94.50;103140.63;10493452;28;20035;-78
2022/01/18 23:08:10;;;;;;;90.10;46.13;;;;;;;-1.37;94.40;103123.47;10495134;28;20062;-78
2022/01/18 23:13:14;;;;;;;80.25;46.15;;;;;;;-1.29;93.95;103097.13;10492618;28;20446;-78
2022/01/18 23:18:22;;;;;;;69.50;40.20;;;;;;;-1.31;94.52;103090.88;10476652;28;20113;-78
2022/01/18 23:23:23;;;;;;;102.45;49.55;;;;;;;-1.22;93.91;103089.50;10465818;28;20476;-78
2022/01/18 23:28:24;;;;;;;85.88;46.17;;;;;;;-1.17;94.59;103091.75;10494297;28;20107;-78
2022/01/18 23:33:24;;;;;;;107.38;50.53;;;;;;;-0.99;94.64;103098.38;10476079;28;20054;-78
2022/01/18 23:38:33;;;;;;;111.13;55.70;;;;;;;-1.05;94.64;103099.44;10494707;28;20158;-78
2022/01/18 23:43:34;;;;;;;110.68;53.60;;;;;;;-1.32;94.53;103117.28;10500520;28;20094;-78
2022/01/18 23:48:35;;;;;;;96.38;48.10;;;;;;;-1.53;94.50;103095.75;10501424;28;20549;-78
2022/01/18 23:53:35;;;;;;;96.60;46.47;;;;;;;-1.57;94.35;103090.03;10499093;28;20078;-78
2022/01/18 23:58:36;;;;;;;96.25;50.70;;;;;;;-1.64;94.29;103084.06;10516964;28;20035;-78
